Terminal Aerodrome Forecast
Issued by NWS Jackson, MS

Home | Current Version | Previous Version | Text Only | Print | Product List | Glossary On
Versions: 1 2 3 4 5 6 7 8 9 10 11 12 13
222
FTUS44 KMEG 132337
TAFTUP
TAF
KTUP 132337Z 1400/1424 03004KT P6SM SCT250
     FM141200 12007KT P6SM OVC060
     FM141500 19012KT P6SM OVC040=

USA.gov is the U.S. government's official web portal to all federal, state and local government web resources and services.